createdAt,value
2018-11-07T00:04:22.188Z,7.73
2018-11-07T00:09:25.486Z,7.60
2018-11-07T00:14:28.151Z,8.93
2018-11-07T00:19:30.738Z,6.53
2018-11-07T00:24:33.292Z,7.40
2018-11-07T00:29:35.852Z,6.77
2018-11-07T00:34:38.420Z,5.93
2018-11-07T00:39:40.992Z,7.50
2018-11-07T00:44:43.601Z,5.93
2018-11-07T00:49:46.169Z,5.30
2018-11-07T00:54:48.740Z,4.53
2018-11-07T00:59:51.308Z,5.13
2018-11-07T01:04:53.877Z,5.17
2018-11-07T01:09:57.068Z,4.13
2018-11-07T01:15:00.699Z,6.13
2018-11-07T01:20:03.843Z,8.10
2018-11-07T01:25:07.080Z,6.57
2018-11-07T01:30:11.813Z,6.47
2018-11-07T01:35:14.382Z,6.23
2018-11-07T01:40:16.954Z,7.00
2018-11-07T01:45:19.553Z,4.40
2018-11-07T01:50:22.110Z,5.83
2018-11-07T01:55:24.703Z,4.57
2018-11-07T02:00:27.950Z,5.47
2018-11-07T02:05:30.589Z,5.53
2018-11-07T02:10:33.235Z,4.70
2018-11-07T02:15:35.796Z,5.27
2018-11-07T02:20:39.764Z,4.73
2018-11-07T02:25:42.368Z,4.23
2018-11-07T02:30:44.947Z,3.77
2018-11-07T02:35:49.141Z,3.80
2018-11-07T02:40:51.725Z,4.13
2018-11-07T02:45:54.281Z,4.17
2018-11-07T02:50:56.847Z,5.53
2018-11-07T02:55:59.416Z,6.17
2018-11-07T03:01:02.990Z,8.40
2018-11-07T03:06:05.577Z,6.47
2018-11-07T03:11:08.122Z,6.03
2018-11-07T03:16:10.685Z,7.33
2018-11-07T03:21:13.254Z,4.10
2018-11-07T03:26:15.845Z,4.00
2018-11-07T03:31:18.420Z,5.07
2018-11-07T03:36:20.911Z,8.33
2018-11-07T03:41:23.458Z,5.03
2018-11-07T03:46:26.037Z,3.43
2018-11-07T03:51:31.241Z,3.57
2018-11-07T03:56:33.822Z,3.40
2018-11-07T04:01:36.404Z,3.27
2018-11-07T04:06:39.060Z,5.20
2018-11-07T04:11:42.507Z,3.77
2018-11-07T04:16:45.078Z,4.47
2018-11-07T04:21:47.720Z,5.73
2018-11-07T04:26:50.284Z,4.37
2018-11-07T04:31:52.868Z,4.87
2018-11-07T04:36:55.429Z,10.53
2018-11-07T04:41:58.705Z,11.97
2018-11-07T04:47:01.460Z,8.23
2018-11-07T04:52:04.031Z,10.53
2018-11-07T04:57:06.928Z,7.47
2018-11-07T05:02:09.528Z,6.03
2018-11-07T05:07:12.080Z,5.60
2018-11-07T05:12:14.640Z,5.87
2018-11-07T05:17:17.193Z,5.00
2018-11-07T05:22:20.227Z,4.73
2018-11-07T05:27:22.809Z,7.40
2018-11-07T05:32:26.184Z,5.40
2018-11-07T05:37:28.740Z,4.73
2018-11-07T05:42:31.300Z,6.03
2018-11-07T05:47:33.896Z,5.77
2018-11-07T05:52:36.760Z,5.40
2018-11-07T05:57:39.715Z,9.00
2018-11-07T06:02:42.288Z,5.67
2018-11-07T06:07:45.088Z,8.30
2018-11-07T06:12:47.658Z,7.27
2018-11-07T06:17:50.225Z,4.97
2018-11-07T06:22:52.818Z,4.50
2018-11-07T06:27:55.392Z,6.57
2018-11-07T06:32:57.964Z,8.77
2018-11-07T06:38:00.527Z,9.10
2018-11-07T06:43:03.143Z,7.93
2018-11-07T06:48:05.604Z,7.53
2018-11-07T06:53:08.188Z,7.93
2018-11-07T06:58:10.792Z,9.87
2018-11-07T07:03:13.242Z,9.73
2018-11-07T07:08:15.820Z,9.87
2018-11-07T07:13:18.409Z,8.10
2018-11-07T07:18:21.212Z,9.10
2018-11-07T07:23:23.782Z,6.37
2018-11-07T07:28:26.349Z,7.93
2018-11-07T07:33:28.987Z,9.93
2018-11-07T07:38:31.493Z,16.00
2018-11-07T07:43:34.072Z,14.80
2018-11-07T07:48:36.661Z,7.70
2018-11-07T07:53:39.217Z,12.90
2018-11-07T07:58:41.791Z,10.17
2018-11-07T08:03:44.344Z,11.00
2018-11-07T08:08:46.922Z,8.73
2018-11-07T08:13:49.545Z,9.60
2018-11-07T08:18:52.120Z,11.70
2018-11-07T08:23:54.869Z,10.47
2018-11-07T08:28:57.748Z,18.57
2018-11-07T08:34:01.298Z,12.80
2018-11-07T08:39:07.213Z,12.47
2018-11-07T08:44:09.770Z,7.47
2018-11-07T08:49:13.318Z,13.87
2018-11-07T08:54:16.453Z,35.93
2018-11-07T08:59:19.078Z,14.63
2018-11-07T09:04:22.288Z,11.50
2018-11-07T09:09:24.880Z,8.37
2018-11-07T09:14:27.468Z,9.10
2018-11-07T09:19:30.048Z,14.30
2018-11-07T09:24:32.615Z,9.63
2018-11-07T09:29:36.667Z,12.50
2018-11-07T09:34:40.160Z,9.37
2018-11-07T09:39:42.756Z,8.20
2018-11-07T09:44:45.385Z,8.57
2018-11-07T09:49:48.488Z,11.57
2018-11-07T09:54:51.750Z,8.87
2018-11-07T09:59:54.336Z,8.83
2018-11-07T10:04:56.995Z,10.90
2018-11-07T10:10:00.373Z,11.13
2018-11-07T10:15:03.081Z,10.40
2018-11-07T10:20:09.248Z,10.70
2018-11-07T10:25:12.153Z,10.83
2018-11-07T10:30:17.389Z,12.10
2018-11-07T10:35:19.824Z,13.93
2018-11-07T10:40:23.759Z,10.27
2018-11-07T10:45:26.389Z,12.67
2018-11-07T10:50:28.943Z,10.30
2018-11-07T10:55:31.508Z,13.00
2018-11-07T11:00:39.732Z,8.03
2018-11-07T11:05:42.300Z,7.90
2018-11-07T11:10:44.899Z,7.47
2018-11-07T11:15:47.448Z,10.20
2018-11-07T11:20:50.017Z,9.53
2018-11-07T11:25:53.130Z,6.43
2018-11-07T11:30:55.817Z,7.60
2018-11-07T11:35:58.430Z,6.20
2018-11-07T11:41:01.068Z,6.13
2018-11-07T11:46:03.681Z,5.90
2018-11-07T11:51:06.648Z,3.80
2018-11-07T11:56:09.268Z,4.60
2018-11-07T12:01:11.876Z,4.70
2018-11-07T12:06:14.479Z,4.50
2018-11-07T12:11:17.110Z,5.17
2018-11-07T12:16:19.693Z,4.53
2018-11-07T12:21:22.373Z,6.63
2018-11-07T12:26:24.942Z,4.30
2018-11-07T12:31:27.507Z,4.53
2018-11-07T12:36:30.247Z,5.40
2018-11-07T12:41:32.712Z,5.65
2018-11-07T12:46:35.306Z,5.73
2018-11-07T12:51:37.881Z,6.80
2018-11-07T12:56:40.452Z,8.07
2018-11-07T13:01:43.031Z,6.07
2018-11-07T13:06:45.615Z,6.70
2018-11-07T13:11:48.872Z,7.17
2018-11-07T13:16:51.472Z,6.60
2018-11-07T13:21:54.272Z,4.90
2018-11-07T13:26:56.846Z,5.33
2018-11-07T13:31:59.421Z,4.90
2018-11-07T13:37:02.216Z,5.37
2018-11-07T13:42:04.929Z,8.03
2018-11-07T13:47:07.524Z,6.73
2018-11-07T13:52:10.409Z,6.80
2018-11-07T13:57:13.004Z,5.10
2018-11-07T14:02:15.630Z,5.15
2018-11-07T14:07:18.225Z,5.12
2018-11-07T14:12:20.917Z,4.90
2018-11-07T14:17:23.677Z,6.37
2018-11-07T14:22:26.255Z,8.70
2018-11-07T14:27:28.911Z,9.00
2018-11-07T14:32:31.988Z,11.63
2018-11-07T14:37:35.550Z,10.10
2018-11-07T14:42:38.428Z,10.13
2018-11-07T14:47:41.728Z,17.43
2018-11-07T14:52:44.275Z,19.87
2018-11-07T14:57:46.889Z,6.50
2018-11-07T15:02:49.573Z,6.63
2018-11-07T15:07:52.082Z,15.67
2018-11-07T15:12:55.242Z,12.13
2018-11-07T15:17:58.013Z,10.20
2018-11-07T15:23:00.652Z,6.70
2018-11-07T15:28:03.310Z,6.73
2018-11-07T15:33:05.882Z,11.17
2018-11-07T15:38:08.489Z,14.90
2018-11-07T15:43:11.168Z,9.67
2018-11-07T15:48:16.922Z,11.33
2018-11-07T15:53:19.549Z,7.23
2018-11-07T15:58:22.245Z,5.53
2018-11-07T16:03:30.467Z,12.73
2018-11-07T16:08:33.189Z,11.50
2018-11-07T16:13:36.949Z,6.90
2018-11-07T16:18:39.574Z,11.37
2018-11-07T16:23:42.197Z,11.10
2018-11-07T16:28:44.900Z,11.03
2018-11-07T16:33:47.389Z,7.17
2018-11-07T16:38:50.009Z,11.03
2018-11-07T16:43:52.626Z,13.43
2018-11-07T16:48:55.393Z,14.50
2018-11-07T16:53:58.086Z,13.17
2018-11-07T16:59:00.692Z,22.23
2018-11-07T17:04:04.409Z,17.43
2018-11-07T17:09:07.868Z,18.70
2018-11-07T17:14:10.513Z,16.43
2018-11-07T17:19:14.042Z,14.13
2018-11-07T17:24:16.829Z,22.70
2018-11-07T17:29:19.330Z,21.87
2018-11-07T17:34:22.083Z,13.53
2018-11-07T17:39:24.700Z,11.07
2018-11-07T17:44:27.437Z,10.03
2018-11-07T17:49:30.090Z,11.53
2018-11-07T17:54:32.680Z,12.70
2018-11-07T17:59:35.296Z,13.13
2018-11-07T18:04:37.921Z,10.40
2018-11-07T18:09:40.575Z,12.03
2018-11-07T18:14:44.004Z,12.30
2018-11-07T18:19:46.620Z,26.40
2018-11-07T18:24:49.254Z,25.73
2018-11-07T18:29:51.921Z,34.40
2018-11-07T18:34:54.534Z,15.17
2018-11-07T18:39:57.168Z,16.80
2018-11-07T18:44:59.798Z,15.03
2018-11-07T18:50:02.636Z,13.30
2018-11-07T18:55:06.458Z,15.83
2018-11-07T19:00:11.004Z,16.03
2018-11-07T19:05:13.670Z,14.80
2018-11-07T19:10:17.770Z,16.43
2018-11-07T19:15:20.468Z,16.13
2018-11-07T19:20:23.146Z,13.27
2018-11-07T19:25:25.962Z,10.57
2018-11-07T19:30:28.557Z,6.97
2018-11-07T19:35:31.228Z,11.47
2018-11-07T19:40:33.852Z,14.13
2018-11-07T19:45:36.452Z,11.57
2018-11-07T19:50:39.042Z,13.73
2018-11-07T19:55:41.638Z,13.70
2018-11-07T20:00:44.322Z,15.90
2018-11-07T20:05:48.404Z,19.00
2018-11-07T20:10:51.062Z,14.77
2018-11-07T20:15:53.741Z,15.70
2018-11-07T20:30:29.179Z,12.83
2018-11-07T20:35:31.852Z,12.53
2018-11-07T20:40:34.506Z,15.33
2018-11-07T20:45:39.369Z,15.57
2018-11-07T20:50:41.968Z,13.97
2018-11-07T20:55:49.433Z,11.03
2018-11-07T21:00:52.086Z,11.23
2018-11-07T21:05:54.716Z,14.13
2018-11-07T21:10:57.342Z,12.63
2018-11-07T21:15:59.964Z,9.57
2018-11-07T21:21:02.622Z,11.83
2018-11-07T21:26:05.288Z,8.93
2018-11-07T21:31:07.940Z,9.77
2018-11-07T21:36:10.548Z,12.27
2018-11-07T21:41:13.133Z,10.33
2018-11-07T21:46:15.714Z,11.87
2018-11-07T21:51:19.047Z,9.07
2018-11-07T21:56:21.604Z,11.97
2018-11-07T22:01:24.217Z,11.07
2018-11-07T22:06:26.795Z,12.43
2018-11-07T22:11:29.988Z,12.07
2018-11-07T22:16:32.544Z,11.63
2018-11-07T22:21:35.440Z,15.03
2018-11-07T22:26:38.008Z,9.50
2018-11-07T22:31:40.720Z,8.23
2018-11-07T22:36:43.226Z,10.33
2018-11-07T22:41:45.772Z,10.77
2018-11-07T22:46:48.913Z,7.70
2018-11-07T22:51:51.456Z,14.50
2018-11-07T22:56:54.022Z,12.40
2018-11-07T23:01:56.598Z,17.93
2018-11-07T23:06:59.170Z,19.43
2018-11-07T23:12:02.426Z,17.13
2018-11-07T23:17:05.085Z,16.30
2018-11-07T23:22:07.719Z,14.87
2018-11-07T23:27:10.308Z,16.33
2018-11-07T23:32:12.883Z,15.23
2018-11-07T23:37:15.453Z,12.93
2018-11-07T23:42:18.092Z,8.23
2018-11-07T23:47:20.790Z,7.97
2018-11-07T23:52:28.987Z,7.17
2018-11-07T23:57:31.653Z,15.77
